Terminal Aerodrome Forecast
Issued by NWS

Home | Current Version | Previous Version | Text Only | Print | Product List | Glossary On
Versions: 1 2 3 4 5 6 7 8 9 10 11 12 13 14 15
948
FTUS45 KABQ 241729
TAFSAF
TAF
KSAF 241729Z 2418/2518 36006KT P6SM BKN110
     FM241900 25010KT P6SM VCSH SCT070 BKN120
     FM242100 26012G19KT P6SM VCTS SCT070CB BKN120
     FM242300 35014KT P6SM VCSH SCT070 BKN120
     FM250300 02010KT P6SM FEW080 SCT150
     FM250900 11010KT P6SM SCT080
     FM251600 17008KT P6SM SCT090=

USA.gov is the U.S. government's official web portal to all federal, state and local government web resources and services.